sensor_id;sensor_type;location;lat;lon;timestamp;pressure;altitude;pressure_sealevel;temperature;humidity
16525;BME280;8375;33.594;-117.718;2023-03-03T00:00:49;100548.44;;;14.18;50.42
16525;BME280;8375;33.594;-117.718;2023-03-03T00:03:20;100541.31;;;14.30;52.40
16525;BME280;8375;33.594;-117.718;2023-03-03T00:05:50;100537.72;;;14.21;51.25
16525;BME280;8375;33.594;-117.718;2023-03-03T00:08:19;100547.31;;;14.20;51.65
16525;BME280;8375;33.594;-117.718;2023-03-03T00:10:57;100552.44;;;14.22;51.68
16525;BME280;8375;33.594;-117.718;2023-03-03T00:13:34;100558.97;;;14.06;51.74
16525;BME280;8375;33.594;-117.718;2023-03-03T00:16:21;100557.59;;;14.02;52.23
16525;BME280;8375;33.594;-117.718;2023-03-03T00:18:54;100554.56;;;13.97;51.30
16525;BME280;8375;33.594;-117.718;2023-03-03T00:21:29;100557.28;;;13.96;51.05
16525;BME280;8375;33.594;-117.718;2023-03-03T00:24:21;100545.84;;;13.87;51.40
16525;BME280;8375;33.594;-117.718;2023-03-03T00:26:52;100546.38;;;13.81;51.80
16525;BME280;8375;33.594;-117.718;2023-03-03T00:29:29;100543.34;;;13.75;52.15
16525;BME280;8375;33.594;-117.718;2023-03-03T00:32:15;100544.56;;;13.71;52.67
16525;BME280;8375;33.594;-117.718;2023-03-03T00:34:45;100548.50;;;13.66;51.58
16525;BME280;8375;33.594;-117.718;2023-03-03T00:37:27;100554.84;;;13.73;53.10
16525;BME280;8375;33.594;-117.718;2023-03-03T00:42:52;100549.97;;;13.58;52.92
16525;BME280;8375;33.594;-117.718;2023-03-03T00:45:26;100551.00;;;13.46;53.38
16525;BME280;8375;33.594;-117.718;2023-03-03T00:47:56;100549.63;;;13.30;53.29
16525;BME280;8375;33.594;-117.718;2023-03-03T00:50:30;100556.31;;;13.23;54.28
16525;BME280;8375;33.594;-117.718;2023-03-03T00:53:04;100553.94;;;13.20;54.80
16525;BME280;8375;33.594;-117.718;2023-03-03T00:55:34;100554.72;;;13.11;53.95
16525;BME280;8375;33.594;-117.718;2023-03-03T00:58:25;100556.63;;;13.09;54.22
16525;BME280;8375;33.594;-117.718;2023-03-03T01:01:02;100561.13;;;13.06;55.08
16525;BME280;8375;33.594;-117.718;2023-03-03T01:03:30;100570.41;;;12.99;56.02
16525;BME280;8375;33.594;-117.718;2023-03-03T01:06:04;100575.50;;;12.89;57.04
16525;BME280;8375;33.594;-117.718;2023-03-03T01:08:33;100575.06;;;12.84;57.06
16525;BME280;8375;33.594;-117.718;2023-03-03T01:11:05;100576.00;;;12.83;57.97
16525;BME280;8375;33.594;-117.718;2023-03-03T01:13:37;100583.84;;;12.72;58.20
16525;BME280;8375;33.594;-117.718;2023-03-03T01:16:08;100576.53;;;12.66;58.64
16525;BME280;8375;33.594;-117.718;2023-03-03T01:18:37;100579.63;;;12.59;58.79
16525;BME280;8375;33.594;-117.718;2023-03-03T01:21:07;100591.38;;;12.54;57.94
16525;BME280;8375;33.594;-117.718;2023-03-03T01:23:41;100586.03;;;12.44;58.91
16525;BME280;8375;33.594;-117.718;2023-03-03T01:26:11;100585.72;;;12.37;59.83
16525;BME280;8375;33.594;-117.718;2023-03-03T01:28:42;100584.31;;;12.33;61.26
16525;BME280;8375;33.594;-117.718;2023-03-03T01:31:17;100577.69;;;12.29;61.34
16525;BME280;8375;33.594;-117.718;2023-03-03T01:33:51;100569.97;;;12.16;61.10
16525;BME280;8375;33.594;-117.718;2023-03-03T01:36:28;100566.44;;;12.06;62.88
16525;BME280;8375;33.594;-117.718;2023-03-03T01:38:59;100564.41;;;11.98;61.97
16525;BME280;8375;33.594;-117.718;2023-03-03T01:41:31;100571.97;;;11.89;63.02
16525;BME280;8375;33.594;-117.718;2023-03-03T01:44:03;100577.53;;;11.85;63.85
16525;BME280;8375;33.594;-117.718;2023-03-03T01:46:41;100572.91;;;11.77;65.02
16525;BME280;8375;33.594;-117.718;2023-03-03T01:49:23;100571.59;;;11.71;64.96
16525;BME280;8375;33.594;-117.718;2023-03-03T01:52:00;100576.44;;;11.65;65.57
16525;BME280;8375;33.594;-117.718;2023-03-03T01:54:46;100569.09;;;11.58;65.58
16525;BME280;8375;33.594;-117.718;2023-03-03T01:57:22;100572.97;;;11.53;67.02
16525;BME280;8375;33.594;-117.718;2023-03-03T01:59:54;100562.09;;;11.48;66.72
16525;BME280;8375;33.594;-117.718;2023-03-03T02:02:29;100561.84;;;11.39;66.80
16525;BME280;8375;33.594;-117.718;2023-03-03T02:05:16;100565.63;;;11.35;66.81
16525;BME280;8375;33.594;-117.718;2023-03-03T02:07:52;100561.81;;;11.28;66.87
16525;BME280;8375;33.594;-117.718;2023-03-03T02:10:29;100566.75;;;11.20;68.34
16525;BME280;8375;33.594;-117.718;2023-03-03T02:13:00;100567.81;;;11.17;68.14
16525;BME280;8375;33.594;-117.718;2023-03-03T02:15:57;100568.16;;;11.12;69.08
16525;BME280;8375;33.594;-117.718;2023-03-03T02:18:29;100577.00;;;11.10;69.13
16525;BME280;8375;33.594;-117.718;2023-03-03T02:21:04;100572.13;;;11.05;69.02
16525;BME280;8375;33.594;-117.718;2023-03-03T02:23:38;100580.28;;;11.00;69.22
16525;BME280;8375;33.594;-117.718;2023-03-03T02:26:15;100583.31;;;10.94;69.63
16525;BME280;8375;33.594;-117.718;2023-03-03T02:28:44;100587.78;;;10.92;69.88
16525;BME280;8375;33.594;-117.718;2023-03-03T02:31:15;100586.56;;;10.85;70.88
16525;BME280;8375;33.594;-117.718;2023-03-03T02:33:46;100585.84;;;10.83;71.71
16525;BME280;8375;33.594;-117.718;2023-03-03T02:36:18;100580.16;;;10.78;71.69
16525;BME280;8375;33.594;-117.718;2023-03-03T02:38:52;100593.59;;;10.71;71.93
16525;BME280;8375;33.594;-117.718;2023-03-03T02:41:29;100589.66;;;10.66;73.16
16525;BME280;8375;33.594;-117.718;2023-03-03T02:44:02;100589.88;;;10.63;74.63
16525;BME280;8375;33.594;-117.718;2023-03-03T02:46:33;100579.78;;;10.58;74.20
16525;BME280;8375;33.594;-117.718;2023-03-03T02:49:03;100578.34;;;10.54;75.11
16525;BME280;8375;33.594;-117.718;2023-03-03T02:51:33;100578.78;;;10.48;74.63
16525;BME280;8375;33.594;-117.718;2023-03-03T02:54:03;100585.13;;;10.44;73.90
16525;BME280;8375;33.594;-117.718;2023-03-03T02:56:33;100583.69;;;10.39;73.35
16525;BME280;8375;33.594;-117.718;2023-03-03T02:59:02;100592.00;;;10.32;74.37
16525;BME280;8375;33.594;-117.718;2023-03-03T03:01:31;100594.59;;;10.32;75.33
16525;BME280;8375;33.594;-117.718;2023-03-03T03:04:04;100602.66;;;10.27;76.41
16525;BME280;8375;33.594;-117.718;2023-03-03T03:06:34;100611.72;;;10.21;77.03
16525;BME280;8375;33.594;-117.718;2023-03-03T03:09:02;100608.50;;;10.18;76.36
16525;BME280;8375;33.594;-117.718;2023-03-03T03:11:33;100606.22;;;10.13;77.02
16525;BME280;8375;33.594;-117.718;2023-03-03T03:14:02;100609.53;;;10.02;77.56
16525;BME280;8375;33.594;-117.718;2023-03-03T03:16:31;100608.81;;;10.00;76.58
16525;BME280;8375;33.594;-117.718;2023-03-03T03:19:00;100610.69;;;9.98;76.95
16525;BME280;8375;33.594;-117.718;2023-03-03T03:21:29;100608.72;;;9.89;77.94
16525;BME280;8375;33.594;-117.718;2023-03-03T03:23:59;100612.44;;;9.84;78.87
16525;BME280;8375;33.594;-117.718;2023-03-03T03:26:27;100618.78;;;9.80;79.73
16525;BME280;8375;33.594;-117.718;2023-03-03T03:28:58;100619.19;;;9.74;79.64
16525;BME280;8375;33.594;-117.718;2023-03-03T03:31:29;100620.72;;;9.64;80.42
16525;BME280;8375;33.594;-117.718;2023-03-03T03:33:58;100616.16;;;9.54;80.99
16525;BME280;8375;33.594;-117.718;2023-03-03T03:36:26;100616.34;;;9.51;81.19
16525;BME280;8375;33.594;-117.718;2023-03-03T03:38:55;100617.59;;;9.46;82.05
16525;BME280;8375;33.594;-117.718;2023-03-03T03:41:24;100624.84;;;9.41;82.58
16525;BME280;8375;33.594;-117.718;2023-03-03T03:43:52;100626.78;;;9.37;82.62
16525;BME280;8375;33.594;-117.718;2023-03-03T03:46:22;100629.78;;;9.31;82.52
16525;BME280;8375;33.594;-117.718;2023-03-03T03:48:51;100635.16;;;9.28;83.39
16525;BME280;8375;33.594;-117.718;2023-03-03T03:51:20;100641.56;;;9.22;84.11
16525;BME280;8375;33.594;-117.718;2023-03-03T03:53:48;100636.69;;;9.17;84.17
16525;BME280;8375;33.594;-117.718;2023-03-03T03:56:17;100637.06;;;9.11;85.20
16525;BME280;8375;33.594;-117.718;2023-03-03T03:58:46;100645.88;;;9.08;85.65
16525;BME280;8375;33.594;-117.718;2023-03-03T04:01:15;100652.91;;;9.06;85.45
16525;BME280;8375;33.594;-117.718;2023-03-03T04:03:45;100648.75;;;9.04;85.76
16525;BME280;8375;33.594;-117.718;2023-03-03T04:06:14;100658.28;;;9.03;86.18
16525;BME280;8375;33.594;-117.718;2023-03-03T04:08:43;100657.94;;;8.95;86.00
16525;BME280;8375;33.594;-117.718;2023-03-03T04:11:12;100653.03;;;8.90;86.38
16525;BME280;8375;33.594;-117.718;2023-03-03T04:13:40;100657.78;;;8.84;86.47
16525;BME280;8375;33.594;-117.718;2023-03-03T04:16:09;100657.97;;;8.80;85.98
16525;BME280;8375;33.594;-117.718;2023-03-03T04:18:37;100660.00;;;8.75;87.08
16525;BME280;8375;33.594;-117.718;2023-03-03T04:21:11;100663.53;;;8.74;86.67
16525;BME280;8375;33.594;-117.718;2023-03-03T04:23:40;100674.25;;;8.68;86.56
16525;BME280;8375;33.594;-117.718;2023-03-03T04:26:09;100677.31;;;8.60;86.96
16525;BME280;8375;33.594;-117.718;2023-03-03T04:28:38;100677.22;;;8.62;87.04
16525;BME280;8375;33.594;-117.718;2023-03-03T04:31:07;100678.34;;;8.58;86.65
16525;BME280;8375;33.594;-117.718;2023-03-03T04:33:36;100671.56;;;8.55;87.14
16525;BME280;8375;33.594;-117.718;2023-03-03T04:36:07;100676.94;;;8.52;86.71
16525;BME280;8375;33.594;-117.718;2023-03-03T04:38:36;100680.59;;;8.48;87.49
16525;BME280;8375;33.594;-117.718;2023-03-03T04:41:04;100680.91;;;8.43;88.13
16525;BME280;8375;33.594;-117.718;2023-03-03T04:43:33;100689.13;;;8.50;88.19
16525;BME280;8375;33.594;-117.718;2023-03-03T04:46:02;100691.25;;;8.43;88.13
16525;BME280;8375;33.594;-117.718;2023-03-03T04:48:30;100681.72;;;8.29;88.19
16525;BME280;8375;33.594;-117.718;2023-03-03T04:50:59;100690.38;;;8.28;87.82
16525;BME280;8375;33.594;-117.718;2023-03-03T04:53:29;100696.09;;;8.19;88.60
16525;BME280;8375;33.594;-117.718;2023-03-03T04:55:58;100692.03;;;8.15;89.20
16525;BME280;8375;33.594;-117.718;2023-03-03T04:58:27;100688.81;;;8.11;89.65
16525;BME280;8375;33.594;-117.718;2023-03-03T05:00:57;100690.66;;;8.09;89.83
16525;BME280;8375;33.594;-117.718;2023-03-03T05:03:26;100695.09;;;8.07;90.06
16525;BME280;8375;33.594;-117.718;2023-03-03T05:05:54;100703.19;;;8.01;90.19
16525;BME280;8375;33.594;-117.718;2023-03-03T05:08:23;100697.53;;;7.94;90.32
16525;BME280;8375;33.594;-117.718;2023-03-03T05:10:54;100694.22;;;7.92;91.00
16525;BME280;8375;33.594;-117.718;2023-03-03T05:13:25;100697.53;;;7.94;91.47
16525;BME280;8375;33.594;-117.718;2023-03-03T05:15:54;100696.97;;;7.89;91.59
16525;BME280;8375;33.594;-117.718;2023-03-03T05:18:24;100696.22;;;7.87;91.94
16525;BME280;8375;33.594;-117.718;2023-03-03T05:20:53;100689.75;;;7.80;91.92
16525;BME280;8375;33.594;-117.718;2023-03-03T05:23:22;100689.81;;;7.78;92.26
16525;BME280;8375;33.594;-117.718;2023-03-03T05:25:51;100687.97;;;7.80;92.13
16525;BME280;8375;33.594;-117.718;2023-03-03T05:28:21;100682.75;;;7.82;92.09
16525;BME280;8375;33.594;-117.718;2023-03-03T05:30:50;100678.31;;;7.84;93.26
16525;BME280;8375;33.594;-117.718;2023-03-03T05:33:19;100679.31;;;7.81;92.02
16525;BME280;8375;33.594;-117.718;2023-03-03T05:35:51;100673.66;;;7.74;92.33
16525;BME280;8375;33.594;-117.718;2023-03-03T05:38:23;100677.25;;;7.72;92.72
16525;BME280;8375;33.594;-117.718;2023-03-03T05:40:52;100685.28;;;7.67;92.65
16525;BME280;8375;33.594;-117.718;2023-03-03T05:43:23;100686.19;;;7.66;92.77
16525;BME280;8375;33.594;-117.718;2023-03-03T05:45:54;100694.38;;;7.58;92.71
16525;BME280;8375;33.594;-117.718;2023-03-03T05:48:24;100689.53;;;7.52;93.35
16525;BME280;8375;33.594;-117.718;2023-03-03T05:50:52;100689.31;;;7.57;94.20
16525;BME280;8375;33.594;-117.718;2023-03-03T05:53:21;100686.16;;;7.52;93.71
16525;BME280;8375;33.594;-117.718;2023-03-03T05:55:49;100679.38;;;7.49;93.69
16525;BME280;8375;33.594;-117.718;2023-03-03T05:58:18;100683.22;;;7.42;93.73
16525;BME280;8375;33.594;-117.718;2023-03-03T06:00:49;100687.75;;;7.38;93.56
16525;BME280;8375;33.594;-117.718;2023-03-03T06:03:17;100693.09;;;7.35;93.43
16525;BME280;8375;33.594;-117.718;2023-03-03T06:05:46;100682.06;;;7.31;93.62
16525;BME280;8375;33.594;-117.718;2023-03-03T06:08:15;100695.25;;;7.27;94.49
16525;BME280;8375;33.594;-117.718;2023-03-03T06:10:43;100694.41;;;7.26;94.36
16525;BME280;8375;33.594;-117.718;2023-03-03T06:13:12;100691.66;;;7.29;94.71
16525;BME280;8375;33.594;-117.718;2023-03-03T06:15:41;100691.75;;;7.28;94.44
16525;BME280;8375;33.594;-117.718;2023-03-03T06:18:11;100688.25;;;7.13;94.56
16525;BME280;8375;33.594;-117.718;2023-03-03T06:20:40;100684.75;;;7.14;94.60
16525;BME280;8375;33.594;-117.718;2023-03-03T06:23:08;100686.69;;;7.10;95.02
16525;BME280;8375;33.594;-117.718;2023-03-03T06:25:38;100674.88;;;7.06;95.39
16525;BME280;8375;33.594;-117.718;2023-03-03T06:28:08;100671.69;;;7.01;95.61
16525;BME280;8375;33.594;-117.718;2023-03-03T06:30:37;100667.34;;;7.01;95.63
16525;BME280;8375;33.594;-117.718;2023-03-03T06:33:05;100666.53;;;7.01;95.68
16525;BME280;8375;33.594;-117.718;2023-03-03T06:35:36;100665.69;;;7.00;95.10
16525;BME280;8375;33.594;-117.718;2023-03-03T06:38:05;100655.78;;;6.93;95.92
16525;BME280;8375;33.594;-117.718;2023-03-03T06:40:33;100661.03;;;6.91;95.85
16525;BME280;8375;33.594;-117.718;2023-03-03T06:43:02;100658.88;;;6.83;95.76
16525;BME280;8375;33.594;-117.718;2023-03-03T06:45:31;100653.78;;;6.82;96.29
16525;BME280;8375;33.594;-117.718;2023-03-03T06:48:00;100661.69;;;6.79;97.15
16525;BME280;8375;33.594;-117.718;2023-03-03T06:50:29;100663.34;;;6.80;97.51
16525;BME280;8375;33.594;-117.718;2023-03-03T06:53:05;100664.19;;;6.80;97.62
16525;BME280;8375;33.594;-117.718;2023-03-03T06:55:35;100659.94;;;6.79;97.52
16525;BME280;8375;33.594;-117.718;2023-03-03T06:58:08;100653.72;;;6.83;97.77
16525;BME280;8375;33.594;-117.718;2023-03-03T07:00:40;100659.94;;;6.79;96.63
16525;BME280;8375;33.594;-117.718;2023-03-03T07:03:14;100663.44;;;6.78;96.97
16525;BME280;8375;33.594;-117.718;2023-03-03T07:05:44;100669.09;;;6.69;96.81
16525;BME280;8375;33.594;-117.718;2023-03-03T07:08:16;100674.44;;;6.66;97.04
16525;BME280;8375;33.594;-117.718;2023-03-03T07:10:46;100668.41;;;6.65;96.16
16525;BME280;8375;33.594;-117.718;2023-03-03T07:13:19;100671.31;;;6.59;96.75
16525;BME280;8375;33.594;-117.718;2023-03-03T07:15:49;100677.38;;;6.58;97.09
16525;BME280;8375;33.594;-117.718;2023-03-03T07:18:36;100674.22;;;6.53;97.18
16525;BME280;8375;33.594;-117.718;2023-03-03T07:21:13;100672.66;;;6.50;97.13
16525;BME280;8375;33.594;-117.718;2023-03-03T07:23:46;100661.56;;;6.48;96.87
16525;BME280;8375;33.594;-117.718;2023-03-03T07:26:17;100673.78;;;6.44;97.43
16525;BME280;8375;33.594;-117.718;2023-03-03T07:28:53;100680.53;;;6.47;97.63
16525;BME280;8375;33.594;-117.718;2023-03-03T07:31:30;100688.28;;;6.47;97.90
16525;BME280;8375;33.594;-117.718;2023-03-03T07:34:03;100695.75;;;6.36;97.35
16525;BME280;8375;33.594;-117.718;2023-03-03T07:36:35;100686.34;;;6.35;97.77
16525;BME280;8375;33.594;-117.718;2023-03-03T07:39:19;100681.25;;;6.33;98.00
16525;BME280;8375;33.594;-117.718;2023-03-03T07:41:49;100682.91;;;6.34;97.73
16525;BME280;8375;33.594;-117.718;2023-03-03T07:44:21;100681.66;;;6.25;97.87
16525;BME280;8375;33.594;-117.718;2023-03-03T07:46:52;100680.00;;;6.24;98.41
16525;BME280;8375;33.594;-117.718;2023-03-03T07:49:22;100669.06;;;6.19;98.50
16525;BME280;8375;33.594;-117.718;2023-03-03T07:51:53;100664.81;;;6.18;98.23
16525;BME280;8375;33.594;-117.718;2023-03-03T07:54:34;100658.31;;;6.11;98.65
16525;BME280;8375;33.594;-117.718;2023-03-03T07:57:17;100649.38;;;6.18;99.68
16525;BME280;8375;33.594;-117.718;2023-03-03T07:59:48;100647.53;;;6.20;100.00
16525;BME280;8375;33.594;-117.718;2023-03-03T08:02:34;100645.59;;;6.08;99.24
16525;BME280;8375;33.594;-117.718;2023-03-03T08:05:30;100632.44;;;5.95;99.23
16525;BME280;8375;33.594;-117.718;2023-03-03T08:08:19;100636.78;;;5.94;99.80
16525;BME280;8375;33.594;-117.718;2023-03-03T08:10:52;100632.75;;;5.88;99.86
16525;BME280;8375;33.594;-117.718;2023-03-03T08:13:22;100635.47;;;5.85;99.43
16525;BME280;8375;33.594;-117.718;2023-03-03T08:15:54;100639.88;;;5.83;98.88
16525;BME280;8375;33.594;-117.718;2023-03-03T08:18:27;100650.59;;;5.76;99.25
16525;BME280;8375;33.594;-117.718;2023-03-03T08:20:57;100651.34;;;5.78;100.00
16525;BME280;8375;33.594;-117.718;2023-03-03T08:23:26;100653.66;;;5.82;100.00
16525;BME280;8375;33.594;-117.718;2023-03-03T08:25:57;100644.56;;;5.75;100.00
16525;BME280;8375;33.594;-117.718;2023-03-03T08:28:25;100647.09;;;5.77;99.98
16525;BME280;8375;33.594;-117.718;2023-03-03T08:30:54;100643.75;;;5.75;100.00
16525;BME280;8375;33.594;-117.718;2023-03-03T08:33:23;100637.31;;;5.66;100.00
16525;BME280;8375;33.594;-117.718;2023-03-03T08:35:52;100636.50;;;5.65;100.00
16525;BME280;8375;33.594;-117.718;2023-03-03T08:38:21;100626.19;;;5.65;100.00
16525;BME280;8375;33.594;-117.718;2023-03-03T08:40:50;100621.19;;;5.62;100.00
16525;BME280;8375;33.594;-117.718;2023-03-03T08:43:20;100609.44;;;5.56;100.00
16525;BME280;8375;33.594;-117.718;2023-03-03T08:45:51;100608.00;;;5.51;99.78
16525;BME280;8375;33.594;-117.718;2023-03-03T08:48:20;100612.47;;;5.47;100.00
16525;BME280;8375;33.594;-117.718;2023-03-03T08:50:49;100614.06;;;5.50;100.00
16525;BME280;8375;33.594;-117.718;2023-03-03T08:53:18;100604.66;;;5.49;100.00
16525;BME280;8375;33.594;-117.718;2023-03-03T08:55:47;100598.91;;;5.43;100.00
16525;BME280;8375;33.594;-117.718;2023-03-03T08:58:19;100593.75;;;5.43;100.00
16525;BME280;8375;33.594;-117.718;2023-03-03T09:00:48;100582.00;;;5.38;100.00
16525;BME280;8375;33.594;-117.718;2023-03-03T09:03:17;100586.84;;;5.44;100.00
16525;BME280;8375;33.594;-117.718;2023-03-03T09:05:45;100584.81;;;5.33;100.00
16525;BME280;8375;33.594;-117.718;2023-03-03T09:08:14;100587.44;;;5.32;100.00
16525;BME280;8375;33.594;-117.718;2023-03-03T09:10:43;100585.19;;;5.25;100.00
16525;BME280;8375;33.594;-117.718;2023-03-03T09:13:14;100580.09;;;5.24;100.00
16525;BME280;8375;33.594;-117.718;2023-03-03T09:15:46;100576.59;;;5.25;100.00
16525;BME280;8375;33.594;-117.718;2023-03-03T09:18:17;100580.03;;;5.25;100.00
16525;BME280;8375;33.594;-117.718;2023-03-03T09:20:48;100581.84;;;5.23;100.00
16525;BME280;8375;33.594;-117.718;2023-03-03T09:23:32;100573.41;;;5.20;100.00
16525;BME280;8375;33.594;-117.718;2023-03-03T09:26:24;100558.72;;;5.22;100.00
16525;BME280;8375;33.594;-117.718;2023-03-03T09:28:54;100557.69;;;5.26;100.00
16525;BME280;8375;33.594;-117.718;2023-03-03T09:31:35;100556.47;;;5.16;100.00
16525;BME280;8375;33.594;-117.718;2023-03-03T09:34:15;100556.75;;;5.09;100.00
16525;BME280;8375;33.594;-117.718;2023-03-03T09:36:47;100544.94;;;5.05;100.00
16525;BME280;8375;33.594;-117.718;2023-03-03T09:39:19;100545.19;;;5.01;100.00
16525;BME280;8375;33.594;-117.718;2023-03-03T09:42:11;100533.28;;;4.98;100.00
16525;BME280;8375;33.594;-117.718;2023-03-03T09:48:11;100521.72;;;4.89;100.00
16525;BME280;8375;33.594;-117.718;2023-03-03T09:50:54;100520.03;;;4.88;100.00
16525;BME280;8375;33.594;-117.718;2023-03-03T09:53:39;100513.13;;;4.89;100.00
16525;BME280;8375;33.594;-117.718;2023-03-03T09:56:18;100498.91;;;4.81;100.00
16525;BME280;8375;33.594;-117.718;2023-03-03T09:59:09;100500.72;;;4.79;100.00
16525;BME280;8375;33.594;-117.718;2023-03-03T10:01:52;100504.34;;;4.75;100.00
16525;BME280;8375;33.594;-117.718;2023-03-03T10:04:39;100505.25;;;4.74;100.00
16525;BME280;8375;33.594;-117.718;2023-03-03T10:07:21;100504.44;;;4.74;100.00
16525;BME280;8375;33.594;-117.718;2023-03-03T10:13:03;100499.44;;;4.70;100.00
16525;BME280;8375;33.594;-117.718;2023-03-03T10:15:44;100504.72;;;4.67;100.00
16525;BME280;8375;33.594;-117.718;2023-03-03T10:18:22;100504.03;;;4.64;100.00
16525;BME280;8375;33.594;-117.718;2023-03-03T10:21:03;100495.69;;;4.59;100.00
16525;BME280;8375;33.594;-117.718;2023-03-03T10:23:54;100504.03;;;4.64;100.00
16525;BME280;8375;33.594;-117.718;2023-03-03T10:26:39;100499.00;;;5.33;100.00
16525;BME280;8375;33.594;-117.718;2023-03-03T10:29:21;100498.34;;;5.47;100.00
16525;BME280;8375;33.594;-117.718;2023-03-03T10:32:03;100487.03;;;5.49;100.00
16525;BME280;8375;33.594;-117.718;2023-03-03T10:35:00;100478.78;;;5.60;100.00
16525;BME280;8375;33.594;-117.718;2023-03-03T10:37:40;100470.19;;;5.93;100.00
16525;BME280;8375;33.594;-117.718;2023-03-03T10:40:18;100463.81;;;5.67;100.00
16525;BME280;8375;33.594;-117.718;2023-03-03T10:43:05;100464.16;;;5.43;100.00
16525;BME280;8375;33.594;-117.718;2023-03-03T10:46:01;100462.00;;;5.18;100.00
16525;BME280;8375;33.594;-117.718;2023-03-03T10:48:45;100453.81;;;5.09;100.00
16525;BME280;8375;33.594;-117.718;2023-03-03T10:51:25;100453.81;;;5.09;100.00
16525;BME280;8375;33.594;-117.718;2023-03-03T10:54:11;100466.78;;;4.90;100.00
16525;BME280;8375;33.594;-117.718;2023-03-03T10:56:47;100453.66;;;4.77;100.00
16525;BME280;8375;33.594;-117.718;2023-03-03T10:59:39;100451.91;;;4.60;100.00
16525;BME280;8375;33.594;-117.718;2023-03-03T11:02:17;100445.41;;;4.53;100.00
16525;BME280;8375;33.594;-117.718;2023-03-03T11:05:08;100451.06;;;4.60;100.00
16525;BME280;8375;33.594;-117.718;2023-03-03T11:07:45;100453.03;;;4.54;100.00
16525;BME280;8375;33.594;-117.718;2023-03-03T11:10:26;100445.25;;;4.56;100.00
16525;BME280;8375;33.594;-117.718;2023-03-03T11:13:06;100437.41;;;4.59;100.00
16525;BME280;8375;33.594;-117.718;2023-03-03T11:15:50;100445.94;;;4.60;100.00
16525;BME280;8375;33.594;-117.718;2023-03-03T11:18:28;100447.81;;;4.56;100.00
16525;BME280;8375;33.594;-117.718;2023-03-03T11:21:07;100447.72;;;4.58;100.00
16525;BME280;8375;33.594;-117.718;2023-03-03T11:26:54;100434.06;;;4.57;100.00
16525;BME280;8375;33.594;-117.718;2023-03-03T11:32:26;100433.31;;;4.55;100.00
16525;BME280;8375;33.594;-117.718;2023-03-03T11:35:16;100443.19;;;4.45;100.00
16525;BME280;8375;33.594;-117.718;2023-03-03T11:37:51;100444.50;;;4.35;100.00
16525;BME280;8375;33.594;-117.718;2023-03-03T11:40:25;100441.66;;;4.41;100.00
16525;BME280;8375;33.594;-117.718;2023-03-03T11:43:02;100442.72;;;4.37;100.00
16525;BME280;8375;33.594;-117.718;2023-03-03T11:45:39;100442.94;;;4.32;100.00
16525;BME280;8375;33.594;-117.718;2023-03-03T11:48:15;100440.28;;;4.34;100.00
16525;BME280;8375;33.594;-117.718;2023-03-03T11:50:53;100441.94;;;4.35;100.00
16525;BME280;8375;33.594;-117.718;2023-03-03T11:53:31;100436.50;;;4.41;100.00
16525;BME280;8375;33.594;-117.718;2023-03-03T11:56:15;100434.09;;;4.38;100.00
16525;BME280;8375;33.594;-117.718;2023-03-03T11:58:54;100435.00;;;4.37;100.00
16525;BME280;8375;33.594;-117.718;2023-03-03T12:01:31;100434.53;;;4.29;100.00
16525;BME280;8375;33.594;-117.718;2023-03-03T12:04:03;100433.34;;;4.36;100.00
16525;BME280;8375;33.594;-117.718;2023-03-03T12:06:39;100430.19;;;4.66;100.00
16525;BME280;8375;33.594;-117.718;2023-03-03T12:09:28;100435.00;;;4.91;100.00
16525;BME280;8375;33.594;-117.718;2023-03-03T12:12:05;100440.50;;;5.01;100.00
16525;BME280;8375;33.594;-117.718;2023-03-03T12:14:52;100438.69;;;5.03;100.00
16525;BME280;8375;33.594;-117.718;2023-03-03T12:20:21;100428.47;;;4.84;100.00
16525;BME280;8375;33.594;-117.718;2023-03-03T12:23:03;100425.47;;;4.76;100.00
16525;BME280;8375;33.594;-117.718;2023-03-03T12:25:39;100430.28;;;4.64;100.00
16525;BME280;8375;33.594;-117.718;2023-03-03T12:28:12;100432.19;;;4.96;100.00
16525;BME280;8375;33.594;-117.718;2023-03-03T12:31:07;100424.25;;;4.83;100.00
16525;BME280;8375;33.594;-117.718;2023-03-03T12:33:54;100423.97;;;4.52;100.00
16525;BME280;8375;33.594;-117.718;2023-03-03T12:36:49;100411.06;;;4.54;100.00
16525;BME280;8375;33.594;-117.718;2023-03-03T12:39:31;100415.94;;;4.41;100.00
16525;BME280;8375;33.594;-117.718;2023-03-03T12:42:10;100410.97;;;4.55;100.00
16525;BME280;8375;33.594;-117.718;2023-03-03T12:44:45;100411.44;;;4.81;100.00
16525;BME280;8375;33.594;-117.718;2023-03-03T12:47:21;100412.94;;;4.68;100.00
16525;BME280;8375;33.594;-117.718;2023-03-03T12:50:01;100404.88;;;4.58;100.00
16525;BME280;8375;33.594;-117.718;2023-03-03T12:52:36;100405.75;;;4.39;100.00
16525;BME280;8375;33.594;-117.718;2023-03-03T12:55:14;100407.38;;;4.23;100.00
16525;BME280;8375;33.594;-117.718;2023-03-03T12:57:49;100395.66;;;4.17;100.00
16525;BME280;8375;33.594;-117.718;2023-03-03T13:00:30;100392.53;;;4.10;100.00
16525;BME280;8375;33.594;-117.718;2023-03-03T13:03:10;100388.78;;;3.99;100.00
16525;BME280;8375;33.594;-117.718;2023-03-03T13:05:53;100382.06;;;4.33;100.00
16525;BME280;8375;33.594;-117.718;2023-03-03T13:08:30;100391.69;;;4.29;100.00
16525;BME280;8375;33.594;-117.718;2023-03-03T13:14:09;100389.81;;;4.14;100.00
16525;BME280;8375;33.594;-117.718;2023-03-03T13:16:46;100398.97;;;4.19;100.00
16525;BME280;8375;33.594;-117.718;2023-03-03T13:19:19;100404.28;;;3.97;100.00
16525;BME280;8375;33.594;-117.718;2023-03-03T13:21:52;100401.16;;;3.90;100.00
16525;BME280;8375;33.594;-117.718;2023-03-03T13:24:27;100406.28;;;3.90;100.00
16525;BME280;8375;33.594;-117.718;2023-03-03T13:27:05;100401.88;;;3.94;100.00
16525;BME280;8375;33.594;-117.718;2023-03-03T13:29:38;100387.97;;;4.35;100.00